Time;durP1;ratioP1;P1;durP2;ratioP2;P2;SDS_P1;SDS_P2;PMS_P1;PMS_P2;Temp;Humidity;BMP_temperature;BMP_pressure;BME280_temperature;BME280_humidity;BME280_pressure;Samples;Min_cycle;Max_cycle;Signal;HPM_P1;HPM_P2
2021/10/14 00:01:17;;;;;;;14.13;5.93;;;;;;;;;;5052539;28;20056;-79
2021/10/14 00:03:42;;;;;;;10.77;5.22;;;;;;;;;;5052945;28;20442;-81
2021/10/14 00:06:08;;;;;;;14.50;5.95;;;;;;;;;;5052577;28;20032;-79
2021/10/14 00:08:33;;;;;;;13.23;5.35;;;;;;;;;;5055769;28;20128;-79
2021/10/14 00:10:59;;;;;;;14.52;5.68;;;;;;;;;;5057053;28;20017;-79
2021/10/14 00:13:24;;;;;;;18.60;5.53;;;;;;;;;;5056748;28;20039;-80
2021/10/14 00:15:49;;;;;;;16.55;6.00;;;;;;;;;;5056394;28;20385;-79
2021/10/14 00:18:14;;;;;;;19.42;6.05;;;;;;;;;;5038889;28;20105;-79
2021/10/14 00:20:40;;;;;;;10.70;5.00;;;;;;;;;;5036789;28;20428;-79
2021/10/14 00:23:05;;;;;;;11.68;5.10;;;;;;;;;;5036391;28;20443;-79
2021/10/14 00:25:31;;;;;;;15.15;5.45;;;;;;;;;;5036966;28;20439;-79
2021/10/14 00:27:56;;;;;;;12.57;4.88;;;;;;;;;;5034970;28;20045;-80
2021/10/14 00:30:21;;;;;;;15.25;5.38;;;;;;;;;;5036092;28;20096;-82
2021/10/14 00:32:46;;;;;;;16.85;6.18;;;;;;;;;;5036508;28;20021;-80
2021/10/14 00:35:12;;;;;;;13.07;5.63;;;;;;;;;;5040974;28;20111;-80
2021/10/14 00:37:37;;;;;;;10.23;4.72;;;;;;;;;;5053626;28;20432;-80
2021/10/14 00:40:04;;;;;;;12.57;4.70;;;;;;;;;;5056041;28;20052;-79
2021/10/14 00:42:29;;;;;;;17.60;5.25;;;;;;;;;;5056452;28;20094;-81
2021/10/14 00:44:55;;;;;;;11.38;4.88;;;;;;;;;;5055754;28;20025;-79
2021/10/14 00:47:24;;;;;;;12.02;4.32;;;;;;;;;;5056379;28;20036;-79
2021/10/14 00:49:50;;;;;;;12.40;5.30;;;;;;;;;;5055701;28;20064;-79
2021/10/14 00:52:15;;;;;;;14.70;5.00;;;;;;;;;;5055752;28;20118;-79
2021/10/14 00:54:41;;;;;;;15.52;5.38;;;;;;;;;;5055810;28;20033;-79
2021/10/14 00:57:06;;;;;;;14.82;5.05;;;;;;;;;;5055729;28;20040;-80
2021/10/14 00:59:32;;;;;;;14.90;4.82;;;;;;;;;;5055714;28;20017;-79
2021/10/14 01:01:57;;;;;;;15.57;5.03;;;;;;;;;;5055769;28;20021;-79
2021/10/14 01:04:22;;;;;;;10.23;4.57;;;;;;;;;;5055866;28;20112;-79
2021/10/14 01:06:47;;;;;;;12.88;4.93;;;;;;;;;;5055678;28;20029;-80
2021/10/14 01:09:13;;;;;;;8.52;4.55;;;;;;;;;;5056167;28;20382;-79
2021/10/14 01:11:39;;;;;;;12.63;4.75;;;;;;;;;;5055619;28;20029;-79
2021/10/14 01:14:04;;;;;;;10.07;4.18;;;;;;;;;;5055354;28;20021;-80
2021/10/14 01:16:30;;;;;;;13.07;4.13;;;;;;;;;;5055599;28;20028;-79
2021/10/14 01:18:55;;;;;;;11.40;4.65;;;;;;;;;;5054320;28;20037;-79
2021/10/14 01:21:20;;;;;;;11.48;4.88;;;;;;;;;;5055086;28;20060;-80
2021/10/14 01:23:46;;;;;;;11.55;4.93;;;;;;;;;;5055505;28;20017;-79
2021/10/14 01:26:11;;;;;;;12.05;4.35;;;;;;;;;;5055594;28;20041;-79
2021/10/14 01:28:36;;;;;;;15.73;4.50;;;;;;;;;;5054940;28;20033;-79
2021/10/14 01:31:02;;;;;;;11.75;4.28;;;;;;;;;;5055393;28;20079;-79
2021/10/14 01:33:27;;;;;;;8.70;4.18;;;;;;;;;;5054954;28;20033;-79
2021/10/14 01:35:52;;;;;;;13.40;4.43;;;;;;;;;;5055099;28;20045;-79
2021/10/14 01:38:18;;;;;;;8.95;3.88;;;;;;;;;;5054990;28;20417;-79
2021/10/14 01:40:43;;;;;;;11.70;4.30;;;;;;;;;;5055213;28;20047;-79
2021/10/14 01:43:13;;;;;;;8.73;4.07;;;;;;;;;;5054561;28;20092;-79
2021/10/14 01:45:38;;;;;;;6.78;3.47;;;;;;;;;;5055073;28;20040;-79
2021/10/14 01:48:03;;;;;;;10.35;4.28;;;;;;;;;;5054722;28;20040;-79
2021/10/14 01:50:29;;;;;;;12.98;4.55;;;;;;;;;;5055247;28;20134;-79
2021/10/14 01:52:54;;;;;;;10.98;4.90;;;;;;;;;;5054752;28;20025;-80
2021/10/14 01:55:19;;;;;;;12.20;4.60;;;;;;;;;;5054889;28;20048;-79
2021/10/14 01:57:44;;;;;;;11.35;4.68;;;;;;;;;;5054746;28;20490;-79
2021/10/14 02:00:10;;;;;;;11.73;4.30;;;;;;;;;;5054569;28;20021;-79
2021/10/14 02:02:35;;;;;;;10.27;4.03;;;;;;;;;;5054308;28;20031;-79
2021/10/14 02:05:00;;;;;;;11.77;4.25;;;;;;;;;;5054673;28;20037;-79
2021/10/14 02:07:26;;;;;;;7.80;4.40;;;;;;;;;;5054743;28;20032;-79
2021/10/14 02:09:51;;;;;;;8.68;4.30;;;;;;;;;;5054617;28;20120;-80
2021/10/14 02:12:16;;;;;;;9.93;4.40;;;;;;;;;;5054590;28;20127;-79
2021/10/14 02:14:42;;;;;;;10.95;4.13;;;;;;;;;;5053399;28;20028;-79
2021/10/14 02:17:07;;;;;;;15.63;4.53;;;;;;;;;;5054469;28;20492;-79
2021/10/14 02:19:32;;;;;;;7.38;3.95;;;;;;;;;;5054055;28;20028;-79
2021/10/14 02:21:57;;;;;;;8.32;3.90;;;;;;;;;;5054545;28;20100;-79
2021/10/14 02:24:23;;;;;;;8.10;4.10;;;;;;;;;;5054463;28;20033;-80
2021/10/14 02:26:48;;;;;;;9.52;4.20;;;;;;;;;;5053699;28;20037;-80
2021/10/14 02:29:13;;;;;;;13.68;4.60;;;;;;;;;;5054392;28;20021;-79
2021/10/14 02:31:40;;;;;;;7.68;3.83;;;;;;;;;;5053844;28;20405;-79
2021/10/14 02:34:05;;;;;;;8.75;4.10;;;;;;;;;;5054228;28;20053;-79
2021/10/14 02:36:30;;;;;;;9.43;3.78;;;;;;;;;;5053895;28;20484;-79
2021/10/14 02:38:56;;;;;;;7.18;4.03;;;;;;;;;;5054020;28;20036;-79
2021/10/14 02:41:21;;;;;;;10.30;3.50;;;;;;;;;;5053904;28;20791;-80
2021/10/14 02:43:46;;;;;;;8.98;3.63;;;;;;;;;;5053727;28;20021;-80
2021/10/14 02:46:11;;;;;;;8.13;4.20;;;;;;;;;;5053774;28;20036;-80
2021/10/14 02:48:37;;;;;;;7.97;3.55;;;;;;;;;;5053604;28;20068;-79
2021/10/14 02:51:02;;;;;;;8.23;3.22;;;;;;;;;;5053935;28;20074;-80
2021/10/14 02:53:28;;;;;;;15.75;4.18;;;;;;;;;;5053261;28;20385;-80
2021/10/14 02:55:54;;;;;;;9.45;3.63;;;;;;;;;;5053534;28;20024;-79
2021/10/14 02:58:19;;;;;;;8.93;4.03;;;;;;;;;;5053565;28;20025;-80
2021/10/14 03:00:44;;;;;;;6.90;3.75;;;;;;;;;;5053589;28;20783;-79
2021/10/14 03:03:10;;;;;;;13.73;4.00;;;;;;;;;;5052534;28;20021;-79
2021/10/14 03:05:35;;;;;;;9.88;3.67;;;;;;;;;;5053605;28;20021;-79
2021/10/14 03:08:00;;;;;;;13.52;4.22;;;;;;;;;;5053147;28;20037;-79
2021/10/14 03:10:25;;;;;;;14.35;4.32;;;;;;;;;;5053394;28;20123;-79
2021/10/14 03:12:51;;;;;;;16.33;4.55;;;;;;;;;;5053214;28;20460;-79
2021/10/14 03:15:17;;;;;;;10.70;3.90;;;;;;;;;;5053370;28;20029;-80
2021/10/14 03:17:42;;;;;;;11.65;4.30;;;;;;;;;;5052837;28;20044;-79
2021/10/14 03:20:08;;;;;;;9.85;3.88;;;;;;;;;;5053417;28;20044;-79
2021/10/14 03:22:33;;;;;;;10.93;3.80;;;;;;;;;;5052941;28;20043;-79
2021/10/14 03:24:58;;;;;;;9.70;4.03;;;;;;;;;;5053063;28;20017;-79
2021/10/14 03:27:23;;;;;;;8.10;3.88;;;;;;;;;;5053127;28;20029;-79
2021/10/14 03:29:49;;;;;;;10.98;3.70;;;;;;;;;;5052737;28;20389;-79
2021/10/14 03:32:14;;;;;;;9.40;3.83;;;;;;;;;;5052633;28;20031;-79
2021/10/14 03:34:39;;;;;;;11.30;4.43;;;;;;;;;;5053545;28;20083;-79
2021/10/14 03:37:04;;;;;;;15.13;5.72;;;;;;;;;;5052826;28;20113;-79
2021/10/14 03:39:30;;;;;;;16.33;4.57;;;;;;;;;;5052718;28;20021;-80
2021/10/14 03:41:55;;;;;;;12.68;4.75;;;;;;;;;;5052389;28;20028;-79
2021/10/14 03:44:20;;;;;;;14.93;4.30;;;;;;;;;;5052876;28;20116;-80
2021/10/14 03:46:45;;;;;;;10.85;4.13;;;;;;;;;;5052853;28;20074;-79
2021/10/14 03:49:11;;;;;;;15.15;3.90;;;;;;;;;;5052784;28;20032;-79
2021/10/14 03:51:36;;;;;;;12.82;3.95;;;;;;;;;;5052665;28;20033;-79
2021/10/14 03:54:01;;;;;;;15.98;4.00;;;;;;;;;;5052876;28;20442;-79
2021/10/14 03:56:27;;;;;;;9.23;4.25;;;;;;;;;;5052646;28;20083;-79
2021/10/14 03:58:52;;;;;;;13.98;4.72;;;;;;;;;;5052853;28;20037;-79
2021/10/14 04:01:17;;;;;;;13.88;3.95;;;;;;;;;;5052800;28;20053;-79
2021/10/14 04:03:43;;;;;;;10.32;4.10;;;;;;;;;;5052338;28;20099;-79
2021/10/14 04:06:08;;;;;;;10.20;4.43;;;;;;;;;;5052642;28;20389;-80
2021/10/14 04:08:33;;;;;;;13.80;4.45;;;;;;;;;;5052369;28;20068;-79
2021/10/14 04:10:59;;;;;;;15.25;4.55;;;;;;;;;;5052521;28;20374;-79
2021/10/14 04:13:24;;;;;;;15.55;4.38;;;;;;;;;;5052523;28;20064;-80
2021/10/14 04:15:49;;;;;;;9.65;3.97;;;;;;;;;;5052499;28;20100;-79
2021/10/14 04:18:15;;;;;;;11.35;4.35;;;;;;;;;;5052404;28;20017;-80
2021/10/14 04:20:40;;;;;;;9.70;3.53;;;;;;;;;;5052690;28;20037;-79
2021/10/14 04:23:05;;;;;;;12.38;4.25;;;;;;;;;;5052221;28;20024;-80
2021/10/14 04:25:30;;;;;;;10.30;3.80;;;;;;;;;;5052174;28;20025;-79
2021/10/14 04:27:56;;;;;;;22.33;4.55;;;;;;;;;;5052685;28;20051;-79
2021/10/14 04:30:21;;;;;;;11.75;4.40;;;;;;;;;;5052113;28;20469;-79
2021/10/14 04:32:47;;;;;;;13.05;3.95;;;;;;;;;;5051091;28;20079;-79
2021/10/14 04:35:12;;;;;;;14.80;4.30;;;;;;;;;;5052180;28;20092;-79
2021/10/14 04:37:41;;;;;;;9.65;3.90;;;;;;;;;;5051870;28;20025;-79
2021/10/14 04:40:06;;;;;;;11.52;4.38;;;;;;;;;;5051958;28;20469;-79
2021/10/14 04:42:32;;;;;;;10.63;3.90;;;;;;;;;;5052406;28;20040;-80
2021/10/14 04:44:57;;;;;;;8.95;3.58;;;;;;;;;;5052284;28;20085;-79
2021/10/14 04:47:22;;;;;;;7.63;3.25;;;;;;;;;;5052261;28;20425;-79
2021/10/14 04:49:48;;;;;;;10.73;3.95;;;;;;;;;;5051975;28;20041;-79
2021/10/14 04:52:13;;;;;;;14.43;3.20;;;;;;;;;;5052303;28;20021;-79
2021/10/14 04:54:38;;;;;;;9.00;3.58;;;;;;;;;;5055231;28;20456;-79
2021/10/14 04:57:04;;;;;;;9.00;3.70;;;;;;;;;;5055936;28;20358;-79
2021/10/14 04:59:29;;;;;;;7.70;3.17;;;;;;;;;;5055999;28;20032;-80
2021/10/14 05:01:54;;;;;;;9.57;3.95;;;;;;;;;;5056100;28;20025;-79
2021/10/14 05:04:19;;;;;;;13.40;4.32;;;;;;;;;;5055621;28;20040;-79
2021/10/14 05:06:45;;;;;;;7.72;3.90;;;;;;;;;;5055230;28;20458;-79
2021/10/14 05:09:10;;;;;;;10.57;3.67;;;;;;;;;;5055559;28;20029;-79
2021/10/14 05:11:35;;;;;;;8.68;3.85;;;;;;;;;;5055270;28;20029;-79
2021/10/14 05:14:01;;;;;;;11.43;4.13;;;;;;;;;;5055064;28;20064;-80
2021/10/14 05:16:26;;;;;;;7.15;3.45;;;;;;;;;;5055527;28;20028;-79
2021/10/14 05:18:51;;;;;;;8.48;3.67;;;;;;;;;;5055064;28;20483;-79
2021/10/14 05:21:16;;;;;;;10.82;3.53;;;;;;;;;;5055223;28;20071;-79
2021/10/14 05:23:42;;;;;;;10.55;3.85;;;;;;;;;;5055341;28;20021;-79
2021/10/14 05:26:07;;;;;;;7.75;3.53;;;;;;;;;;5055480;28;20404;-80
2021/10/14 05:28:32;;;;;;;8.32;3.75;;;;;;;;;;5055411;28;20092;-80
2021/10/14 05:30:58;;;;;;;11.77;3.70;;;;;;;;;;5055372;28;20032;-79
2021/10/14 05:33:23;;;;;;;11.18;3.60;;;;;;;;;;5055195;28;20719;-79
2021/10/14 05:35:48;;;;;;;10.95;3.78;;;;;;;;;;5054895;28;20056;-79
2021/10/14 05:38:13;;;;;;;9.05;3.78;;;;;;;;;;5055193;28;20056;-80
2021/10/14 05:40:39;;;;;;;8.30;3.22;;;;;;;;;;5054873;28;20040;-79
2021/10/14 05:43:04;;;;;;;7.40;3.88;;;;;;;;;;5054965;28;20025;-79
2021/10/14 05:45:30;;;;;;;12.13;3.80;;;;;;;;;;5054823;28;20035;-79
2021/10/14 05:47:55;;;;;;;9.40;4.47;;;;;;;;;;5054890;28;20138;-79
2021/10/14 05:50:20;;;;;;;9.98;3.78;;;;;;;;;;5055215;28;20033;-79
2021/10/14 05:52:46;;;;;;;10.45;4.20;;;;;;;;;;5054464;28;20044;-79
2021/10/14 05:55:11;;;;;;;10.40;3.67;;;;;;;;;;5055013;28;20040;-80
2021/10/14 05:57:37;;;;;;;7.90;4.05;;;;;;;;;;5054587;28;20376;-79
2021/10/14 06:00:03;;;;;;;8.60;3.78;;;;;;;;;;5054908;28;20099;-79
2021/10/14 06:02:28;;;;;;;12.60;3.83;;;;;;;;;;5054489;28;20516;-79
2021/10/14 06:04:53;;;;;;;13.95;3.78;;;;;;;;;;5054020;28;20045;-79
2021/10/14 06:07:19;;;;;;;5.72;2.75;;;;;;;;;;5054676;28;20428;-79
2021/10/14 06:09:44;;;;;;;7.18;3.38;;;;;;;;;;5054202;28;20461;-79
2021/10/14 06:12:10;;;;;;;10.18;4.65;;;;;;;;;;5054558;28;20028;-79
2021/10/14 06:14:36;;;;;;;8.85;3.55;;;;;;;;;;5054290;28;20351;-79
2021/10/14 06:17:01;;;;;;;7.32;3.75;;;;;;;;;;5054681;28;20112;-79
2021/10/14 06:19:26;;;;;;;11.07;3.80;;;;;;;;;;5054156;28;20025;-80
2021/10/14 06:21:52;;;;;;;8.60;3.75;;;;;;;;;;5054334;28;20469;-79
2021/10/14 06:24:17;;;;;;;8.57;3.33;;;;;;;;;;5054590;28;20036;-80
2021/10/14 06:26:42;;;;;;;5.88;3.55;;;;;;;;;;5054289;28;20393;-79
2021/10/14 06:29:07;;;;;;;9.57;3.60;;;;;;;;;;5054252;28;20074;-81
2021/10/14 06:31:33;;;;;;;28.75;4.30;;;;;;;;;;5054020;28;20098;-80
2021/10/14 06:33:58;;;;;;;9.85;4.18;;;;;;;;;;5053799;28;20470;-79
2021/10/14 06:36:24;;;;;;;8.70;4.15;;;;;;;;;;5053581;28;20413;-79
2021/10/14 06:38:49;;;;;;;9.23;4.15;;;;;;;;;;5053656;28;20124;-79
2021/10/14 06:41:15;;;;;;;6.75;3.33;;;;;;;;;;5053881;28;20017;-79
2021/10/14 06:43:41;;;;;;;7.18;3.42;;;;;;;;;;5053761;28;20100;-80
2021/10/14 06:46:06;;;;;;;8.68;3.75;;;;;;;;;;5053821;28;20114;-79
2021/10/14 06:48:31;;;;;;;9.02;3.10;;;;;;;;;;5053392;28;20132;-79
2021/10/14 06:50:58;;;;;;;7.40;3.53;;;;;;;;;;5053804;28;20021;-80
2021/10/14 06:53:24;;;;;;;8.43;3.85;;;;;;;;;;5053176;28;20039;-79
2021/10/14 06:55:49;;;;;;;9.93;3.85;;;;;;;;;;5053568;28;20017;-79
2021/10/14 06:58:15;;;;;;;6.80;3.17;;;;;;;;;;5053708;28;20515;-78
2021/10/14 07:00:40;;;;;;;14.52;4.15;;;;;;;;;;5053073;28;20547;-79
2021/10/14 07:03:06;;;;;;;6.72;3.47;;;;;;;;;;5053957;28;20071;-78
2021/10/14 07:05:32;;;;;;;6.53;3.33;;;;;;;;;;5053223;28;20024;-79
2021/10/14 07:07:57;;;;;;;7.03;3.55;;;;;;;;;;5052644;28;20090;-80
2021/10/14 07:10:23;;;;;;;13.50;3.53;;;;;;;;;;5052921;28;20087;-80
2021/10/14 07:12:49;;;;;;;10.20;3.08;;;;;;;;;;5052622;28;20481;-79
2021/10/14 07:15:14;;;;;;;5.45;2.85;;;;;;;;;;5053289;28;20029;-79
2021/10/14 07:17:39;;;;;;;8.00;3.95;;;;;;;;;;5052513;28;20021;-79
2021/10/14 07:20:05;;;;;;;5.72;3.20;;;;;;;;;;5053424;28;20512;-79
2021/10/14 07:22:30;;;;;;;6.80;3.42;;;;;;;;;;5053352;28;20037;-79
2021/10/14 07:24:55;;;;;;;5.90;3.10;;;;;;;;;;5053097;28;20025;-79
2021/10/14 07:27:21;;;;;;;15.18;3.90;;;;;;;;;;5053235;28;20060;-79
2021/10/14 07:29:46;;;;;;;13.63;3.72;;;;;;;;;;5052954;28;20044;-80
2021/10/14 07:32:12;;;;;;;8.13;4.13;;;;;;;;;;5053381;28;20035;-79
2021/10/14 07:34:39;;;;;;;7.10;3.58;;;;;;;;;;5052741;28;20347;-79
2021/10/14 07:37:05;;;;;;;5.97;3.53;;;;;;;;;;5052930;28;20028;-80
2021/10/14 07:39:30;;;;;;;8.25;3.70;;;;;;;;;;5052473;28;20452;-80
2021/10/14 07:41:55;;;;;;;5.60;3.20;;;;;;;;;;5053053;28;20052;-79
2021/10/14 07:44:20;;;;;;;6.90;3.97;;;;;;;;;;5052035;28;20090;-80
2021/10/14 07:46:46;;;;;;;8.25;3.70;;;;;;;;;;5047869;28;20055;-81
2021/10/14 07:49:12;;;;;;;6.10;3.60;;;;;;;;;;5051907;28;20373;-81
2021/10/14 07:51:38;;;;;;;5.55;3.20;;;;;;;;;;5045101;28;20475;-80
2021/10/14 07:54:03;;;;;;;6.43;3.92;;;;;;;;;;5051871;28;20107;-80
2021/10/14 07:56:29;;;;;;;9.27;3.92;;;;;;;;;;5051874;28;20104;-80
2021/10/14 07:58:54;;;;;;;11.15;4.25;;;;;;;;;;5051362;28;20083;-80
2021/10/14 08:01:20;;;;;;;17.83;4.38;;;;;;;;;;5051506;28;20032;-81
2021/10/14 08:03:46;;;;;;;10.30;4.15;;;;;;;;;;5055416;28;20094;-80
2021/10/14 08:06:11;;;;;;;9.18;4.00;;;;;;;;;;5052017;28;20469;-81
2021/10/14 08:08:37;;;;;;;6.40;3.20;;;;;;;;;;5051636;28;20124;-80
2021/10/14 08:11:02;;;;;;;11.20;4.55;;;;;;;;;;5047717;28;20021;-79
2021/10/14 08:13:27;;;;;;;7.93;4.07;;;;;;;;;;5050726;28;20033;-81
2021/10/14 08:15:53;;;;;;;8.15;3.22;;;;;;;;;;5050727;28;20021;-79
2021/10/14 08:18:20;;;;;;;6.35;3.20;;;;;;;;;;5049289;28;20393;-78
2021/10/14 08:20:46;;;;;;;5.63;2.90;;;;;;;;;;5051703;28;20036;-78
2021/10/14 08:23:12;;;;;;;5.50;2.85;;;;;;;;;;5047023;28;20261;-80
2021/10/14 08:25:37;;;;;;;5.47;3.28;;;;;;;;;;5047681;28;20112;-80
2021/10/14 08:28:02;;;;;;;7.13;3.20;;;;;;;;;;5049754;28;20051;-80
2021/10/14 08:30:28;;;;;;;7.80;3.60;;;;;;;;;;5053311;28;20061;-80
2021/10/14 08:32:54;;;;;;;5.85;2.78;;;;;;;;;;5053469;28;20025;-81
2021/10/14 08:35:19;;;;;;;7.85;2.63;;;;;;;;;;5053652;28;20052;-80
2021/10/14 08:37:45;;;;;;;5.72;2.33;;;;;;;;;;5053560;28;20109;-81
2021/10/14 08:40:11;;;;;;;4.10;2.40;;;;;;;;;;5053350;28;20021;-80
2021/10/14 08:42:38;;;;;;;6.05;2.50;;;;;;;;;;5052110;28;20033;-81
2021/10/14 08:45:05;;;;;;;12.23;5.20;;;;;;;;;;5052940;28;20025;-80
2021/10/14 08:47:31;;;;;;;5.78;2.70;;;;;;;;;;5053554;28;20072;-80
2021/10/14 08:49:57;;;;;;;6.03;3.20;;;;;;;;;;5053880;28;20102;-81
2021/10/14 08:52:22;;;;;;;5.63;2.55;;;;;;;;;;5053147;28;20029;-80
2021/10/14 08:54:48;;;;;;;5.68;2.70;;;;;;;;;;5052968;28;20029;-81
2021/10/14 08:57:13;;;;;;;6.30;2.00;;;;;;;;;;5053250;28;20025;-80
2021/10/14 08:59:39;;;;;;;3.95;2.40;;;;;;;;;;5052666;28;20373;-80
2021/10/14 09:02:07;;;;;;;6.15;1.75;;;;;;;;;;5053004;28;20518;-81
2021/10/14 09:04:33;;;;;;;6.00;1.65;;;;;;;;;;5053013;28;20029;-81
2021/10/14 09:07:08;;;;;;;3.17;1.63;;;;;;;;;;5052437;28;20183;-81
2021/10/14 09:09:37;;;;;;;3.92;1.83;;;;;;;;;;5047067;28;20029;-81
2021/10/14 09:12:07;;;;;;;2.88;1.40;;;;;;;;;;5052065;28;20040;-80
2021/10/14 09:14:32;;;;;;;2.90;1.23;;;;;;;;;;5051851;28;20028;-81
2021/10/14 09:16:57;;;;;;;7.20;1.70;;;;;;;;;;5051302;28;20025;-80
2021/10/14 09:19:23;;;;;;;4.65;1.42;;;;;;;;;;5051726;28;20036;-81
2021/10/14 09:21:49;;;;;;;8.85;1.67;;;;;;;;;;5052028;28;20029;-80
2021/10/14 09:24:46;;;;;;;6.05;1.80;;;;;;;;;;5051022;28;20348;-81
2021/10/14 09:27:14;;;;;;;3.53;1.88;;;;;;;;;;5050492;28;20497;-81
2021/10/14 09:29:40;;;;;;;3.72;1.65;;;;;;;;;;5051784;28;20024;-81
2021/10/14 09:32:06;;;;;;;4.82;2.30;;;;;;;;;;5051684;28;20512;-81
2021/10/14 09:34:31;;;;;;;3.30;1.70;;;;;;;;;;5051153;28;20099;-81
2021/10/14 09:36:57;;;;;;;7.38;2.72;;;;;;;;;;5051287;28;20113;-81
2021/10/14 09:39:23;;;;;;;10.85;2.55;;;;;;;;;;5050957;28;20390;-81
2021/10/14 09:41:49;;;;;;;5.97;2.50;;;;;;;;;;5051220;28;20041;-81
2021/10/14 09:44:17;;;;;;;10.90;2.60;;;;;;;;;;5051518;28;20028;-82
2021/10/14 09:46:46;;;;;;;6.72;2.55;;;;;;;;;;5051233;28;20074;-80
2021/10/14 09:49:25;;;;;;;6.72;2.83;;;;;;;;;;5051489;28;20025;-81
2021/10/14 09:51:51;;;;;;;7.85;3.72;;;;;;;;;;5051578;28;20029;-81
2021/10/14 09:54:16;;;;;;;6.53;2.80;;;;;;;;;;5051669;28;20037;-81
2021/10/14 09:56:42;;;;;;;6.70;3.20;;;;;;;;;;5051414;28;20382;-80
2021/10/14 09:59:07;;;;;;;6.32;2.75;;;;;;;;;;5051661;28;20029;-81
2021/10/14 10:01:34;;;;;;;8.07;2.83;;;;;;;;;;5050588;28;20040;-82
2021/10/14 10:04:00;;;;;;;7.50;2.53;;;;;;;;;;5050756;28;20021;-81
2021/10/14 10:06:26;;;;;;;10.07;4.47;;;;;;;;;;5051681;28;20039;-81
2021/10/14 10:08:53;;;;;;;6.68;3.10;;;;;;;;;;5051434;28;20503;-82
2021/10/14 10:11:20;;;;;;;5.95;2.92;;;;;;;;;;5050856;28;20025;-79
2021/10/14 10:13:47;;;;;;;7.47;2.75;;;;;;;;;;5051199;28;20025;-79
2021/10/14 10:16:14;;;;;;;11.18;3.15;;;;;;;;;;5051059;28;20032;-79
2021/10/14 10:18:41;;;;;;;6.10;3.45;;;;;;;;;;5051267;28;20017;-79
2021/10/14 10:21:09;;;;;;;10.50;4.40;;;;;;;;;;5050587;28;20379;-81
2021/10/14 10:23:43;;;;;;;8.57;4.07;;;;;;;;;;5050784;28;20029;-79
2021/10/14 10:26:27;;;;;;;5.75;3.83;;;;;;;;;;5051001;28;20036;-82
2021/10/14 10:28:52;;;;;;;8.82;3.20;;;;;;;;;;5050249;28;20583;-80
2021/10/14 10:31:18;;;;;;;9.27;3.60;;;;;;;;;;5051290;28;20067;-80
2021/10/14 10:34:01;;;;;;;9.27;3.67;;;;;;;;;;5050770;28;20367;-79
2021/10/14 10:36:46;;;;;;;7.40;2.72;;;;;;;;;;5050333;28;20102;-79
2021/10/14 10:39:30;;;;;;;11.00;3.80;;;;;;;;;;5049422;28;20496;-79
2021/10/14 10:42:11;;;;;;;10.88;4.22;;;;;;;;;;5050207;28;20048;-79
2021/10/14 10:44:46;;;;;;;8.32;4.20;;;;;;;;;;5050486;28;20035;-82
2021/10/14 10:47:30;;;;;;;5.20;3.67;;;;;;;;;;5049319;28;20048;-79
2021/10/14 10:49:56;;;;;;;6.57;3.80;;;;;;;;;;5050477;28;20028;-79
2021/10/14 10:52:35;;;;;;;10.50;3.97;;;;;;;;;;5050112;28;20405;-81
2021/10/14 10:55:01;;;;;;;9.27;3.97;;;;;;;;;;5049726;28;20482;-80
2021/10/14 10:57:47;;;;;;;5.72;3.97;;;;;;;;;;5050334;28;20032;-79
2021/10/14 11:00:13;;;;;;;8.93;4.70;;;;;;;;;;5050125;28;20036;-79
2021/10/14 11:02:39;;;;;;;7.70;4.30;;;;;;;;;;5050385;28;20104;-79
2021/10/14 11:05:04;;;;;;;6.25;4.25;;;;;;;;;;5047472;28;20060;-81
2021/10/14 11:07:30;;;;;;;8.60;4.13;;;;;;;;;;5049918;28;20458;-81
2021/10/14 11:09:55;;;;;;;7.60;4.10;;;;;;;;;;5049832;28;20033;-81
2021/10/14 11:12:20;;;;;;;9.32;3.60;;;;;;;;;;5050142;28;20036;-79
2021/10/14 11:14:46;;;;;;;8.30;3.92;;;;;;;;;;5048598;28;20017;-81
2021/10/14 11:17:13;;;;;;;4.68;3.08;;;;;;;;;;5049865;28;20043;-81
2021/10/14 11:19:39;;;;;;;7.70;3.80;;;;;;;;;;5048183;28;20542;-82
2021/10/14 11:22:31;;;;;;;6.45;3.70;;;;;;;;;;5050396;28;20021;-81
2021/10/14 11:25:00;;;;;;;8.20;3.97;;;;;;;;;;5049351;28;20041;-81
2021/10/14 11:27:25;;;;;;;9.13;4.35;;;;;;;;;;5049950;28;20120;-85
2021/10/14 11:29:51;;;;;;;5.43;3.53;;;;;;;;;;5050466;28;20111;-81
2021/10/14 11:32:20;;;;;;;9.90;4.05;;;;;;;;;;5049544;28;20037;-81
2021/10/14 11:34:46;;;;;;;10.50;4.40;;;;;;;;;;5049188;28;20049;-83
2021/10/14 11:37:12;;;;;;;10.20;4.43;;;;;;;;;;5049205;28;20039;-81
2021/10/14 11:39:38;;;;;;;7.10;3.90;;;;;;;;;;5049677;28;20060;-82
2021/10/14 11:42:05;;;;;;;12.02;5.05;;;;;;;;;;5049592;28;20076;-86
2021/10/14 11:44:32;;;;;;;9.10;3.83;;;;;;;;;;5049791;28;20021;-82
2021/10/14 11:46:58;;;;;;;10.35;4.40;;;;;;;;;;5049466;28;20036;-82
2021/10/14 11:49:23;;;;;;;11.32;4.65;;;;;;;;;;5049500;28;20040;-81
2021/10/14 11:51:52;;;;;;;9.15;4.30;;;;;;;;;;5049382;28;20461;-81
2021/10/14 11:54:17;;;;;;;12.20;5.32;;;;;;;;;;5049084;28;20145;-82
2021/10/14 11:56:53;;;;;;;12.25;5.20;;;;;;;;;;5048642;28;20132;-81
2021/10/14 11:59:18;;;;;;;;;;;;;;;;;;5048778;28;20044;-81
2021/10/14 12:01:59;;;;;;;9.48;5.72;;;;;;;;;;5048822;28;19905;-84
2021/10/14 12:04:28;;;;;;;8.43;4.57;;;;;;;;;;5047929;28;20033;-80
2021/10/14 12:06:54;;;;;;;10.30;3.97;;;;;;;;;;5048327;28;20064;-80
2021/10/14 12:09:20;;;;;;;9.60;4.03;;;;;;;;;;5048992;28;20434;-81
2021/10/14 12:11:45;;;;;;;6.05;3.42;;;;;;;;;;5049930;28;20033;-81
2021/10/14 12:14:10;;;;;;;10.60;3.28;;;;;;;;;;5049038;28;20017;-81
2021/10/14 12:16:36;;;;;;;8.18;3.65;;;;;;;;;;5048826;28;20432;-81
2021/10/14 12:19:15;;;;;;;5.93;3.33;;;;;;;;;;5047947;28;20115;-81
2021/10/14 12:21:41;;;;;;;5.90;3.38;;;;;;;;;;5049038;28;20021;-81
2021/10/14 12:24:13;;;;;;;8.40;2.90;;;;;;;;;;5048877;28;20039;-81
2021/10/14 12:26:39;;;;;;;4.43;2.40;;;;;;;;;;5048665;28;20017;-81
2021/10/14 12:29:23;;;;;;;2.78;2.05;;;;;;;;;;5048121;28;20037;-80
2021/10/14 12:31:49;;;;;;;5.07;2.28;;;;;;;;;;5049103;28;20025;-82
2021/10/14 12:34:15;;;;;;;4.05;2.53;;;;;;;;;;5049214;28;20035;-81
2021/10/14 12:36:41;;;;;;;6.93;2.40;;;;;;;;;;5048760;28;20136;-81
2021/10/14 12:39:16;;;;;;;6.88;2.80;;;;;;;;;;5051415;28;20423;-81
2021/10/14 12:41:48;;;;;;;4.13;2.40;;;;;;;;;;5051430;28;20116;-81
2021/10/14 12:44:13;;;;;;;4.80;2.53;;;;;;;;;;5051417;28;20041;-81
2021/10/14 12:51:44;;;;;;;5.15;2.28;;;;;;;;;;5051538;28;20461;-82
2021/10/14 12:54:13;;;;;;;4.53;2.78;;;;;;;;;;5051426;28;20036;-81
2021/10/14 12:56:39;;;;;;;6.97;2.97;;;;;;;;;;5051133;28;20031;-81
2021/10/14 12:59:06;;;;;;;7.90;3.38;;;;;;;;;;5050011;28;20032;-81
2021/10/14 13:01:31;;;;;;;5.00;2.92;;;;;;;;;;5051021;28;20108;-81
2021/10/14 13:03:57;;;;;;;5.60;2.42;;;;;;;;;;5051121;28;20108;-81
2021/10/14 13:06:22;;;;;;;5.28;2.85;;;;;;;;;;5051136;28;20044;-82
2021/10/14 13:08:49;;;;;;;6.53;2.28;;;;;;;;;;5050874;28;20052;-81
2021/10/14 13:11:16;;;;;;;5.28;2.40;;;;;;;;;;5051710;28;20120;-80
2021/10/14 13:13:42;;;;;;;8.88;2.47;;;;;;;;;;5051180;28;20162;-82
2021/10/14 13:16:08;;;;;;;6.30;2.17;;;;;;;;;;5053497;28;20108;-81
2021/10/14 13:18:33;;;;;;;7.20;2.70;;;;;;;;;;5055046;28;20024;-82
2021/10/14 13:21:00;;;;;;;5.57;2.42;;;;;;;;;;5055290;28;20029;-81
2021/10/14 13:23:25;;;;;;;5.65;2.30;;;;;;;;;;5055133;28;20025;-81
2021/10/14 13:25:54;;;;;;;7.72;2.70;;;;;;;;;;5054759;28;20021;-81
2021/10/14 13:28:20;;;;;;;7.07;2.70;;;;;;;;;;5054973;28;20055;-81
2021/10/14 13:30:46;;;;;;;8.10;2.40;;;;;;;;;;5054701;28;20389;-82
2021/10/14 13:33:15;;;;;;;7.75;2.83;;;;;;;;;;5055308;28;20017;-81
2021/10/14 13:35:44;;;;;;;4.25;2.67;;;;;;;;;;5054490;28;20467;-81
2021/10/14 13:38:09;;;;;;;5.90;2.78;;;;;;;;;;5055130;28;20033;-81
2021/10/14 13:40:36;;;;;;;8.13;2.40;;;;;;;;;;5055125;28;20021;-82
2021/10/14 13:43:08;;;;;;;6.80;2.50;;;;;;;;;;5055323;28;20033;-81
2021/10/14 13:45:34;;;;;;;12.57;2.83;;;;;;;;;;5054803;28;20028;-82
2021/10/14 13:47:59;;;;;;;4.13;2.25;;;;;;;;;;5054677;28;20102;-81
2021/10/14 13:50:24;;;;;;;5.90;2.10;;;;;;;;;;5054383;28;20120;-81
2021/10/14 13:52:49;;;;;;;7.63;2.97;;;;;;;;;;5054845;28;20029;-81
2021/10/14 13:55:15;;;;;;;6.35;2.83;;;;;;;;;;5054446;28;20446;-81
2021/10/14 13:57:42;;;;;;;7.68;3.00;;;;;;;;;;5054660;28;20134;-81
2021/10/14 14:00:08;;;;;;;6.55;2.05;;;;;;;;;;5054376;28;20025;-81
2021/10/14 14:02:34;;;;;;;9.18;2.83;;;;;;;;;;5054971;28;20159;-81
2021/10/14 14:04:59;;;;;;;7.00;2.88;;;;;;;;;;5054348;28;20036;-81
2021/10/14 14:07:25;;;;;;;8.07;2.60;;;;;;;;;;5054564;28;20037;-81
2021/10/14 14:09:50;;;;;;;7.05;2.88;;;;;;;;;;5053624;28;20031;-81
2021/10/14 14:12:15;;;;;;;3.88;2.42;;;;;;;;;;5054452;28;20064;-81
2021/10/14 14:14:41;;;;;;;8.00;3.03;;;;;;;;;;5054262;28;20075;-82
2021/10/14 14:17:07;;;;;;;6.38;2.80;;;;;;;;;;5054693;28;20112;-82
2021/10/14 14:19:33;;;;;;;6.47;2.80;;;;;;;;;;5054187;28;20111;-81
2021/10/14 14:21:58;;;;;;;8.43;2.60;;;;;;;;;;5054479;28;20032;-81
2021/10/14 14:24:24;;;;;;;6.88;2.83;;;;;;;;;;5054234;28;20029;-81
2021/10/14 14:26:49;;;;;;;8.35;3.05;;;;;;;;;;5053851;28;20040;-81
2021/10/14 14:29:14;;;;;;;8.40;2.45;;;;;;;;;;5054049;28;20106;-81
2021/10/14 14:31:39;;;;;;;6.57;2.90;;;;;;;;;;5054281;28;20031;-81
2021/10/14 14:34:05;;;;;;;5.28;2.50;;;;;;;;;;5054372;28;20025;-81
2021/10/14 14:36:31;;;;;;;8.10;2.83;;;;;;;;;;5054719;28;20433;-81
2021/10/14 14:38:56;;;;;;;4.13;2.30;;;;;;;;;;5053864;28;20416;-81